createdAt,value
2017-11-17T00:02:18.502Z,18.20
2017-11-17T00:04:47.929Z,20.80
2017-11-17T00:07:16.064Z,19.75
2017-11-17T00:09:44.188Z,19.17
2017-11-17T00:12:12.425Z,18.65
2017-11-17T00:14:40.635Z,18.45
2017-11-17T00:17:08.777Z,20.40
2017-11-17T00:19:37.667Z,18.70
2017-11-17T00:22:06.557Z,18.80
2017-11-17T00:24:35.451Z,20.37
2017-11-17T00:27:04.350Z,18.07
2017-11-17T00:29:32.484Z,18.85
2017-11-17T00:32:00.623Z,17.45
2017-11-17T00:34:28.760Z,17.23
2017-11-17T00:36:57.673Z,17.43
2017-11-17T00:39:25.814Z,19.17
2017-11-17T00:41:53.947Z,17.63
2017-11-17T00:44:22.069Z,19.42
2017-11-17T00:46:50.283Z,18.65
2017-11-17T00:49:18.382Z,17.75
2017-11-17T00:51:46.537Z,21.37
2017-11-17T00:54:14.684Z,19.55
2017-11-17T00:56:42.833Z,18.85
2017-11-17T00:59:11.715Z,19.58
2017-11-17T01:01:40.633Z,19.70
2017-11-17T01:04:08.744Z,19.35
2017-11-17T01:06:36.893Z,20.17
2017-11-17T01:09:05.025Z,18.62
2017-11-17T01:11:33.934Z,20.02
2017-11-17T01:14:02.126Z,19.20
2017-11-17T01:16:30.267Z,20.25
2017-11-17T01:18:59.153Z,19.92
2017-11-17T01:21:28.052Z,20.12
2017-11-17T01:23:56.182Z,19.95
2017-11-17T01:26:25.818Z,22.17
2017-11-17T01:28:54.744Z,21.07
2017-11-17T01:31:22.862Z,18.87
2017-11-17T01:33:50.979Z,20.52
2017-11-17T01:36:19.107Z,19.42
2017-11-17T01:38:47.220Z,21.50
2017-11-17T01:41:15.351Z,19.05
2017-11-17T01:43:43.486Z,19.95
2017-11-17T01:46:11.632Z,17.23
2017-11-17T01:48:40.516Z,19.37
2017-11-17T01:51:08.645Z,21.10
2017-11-17T01:53:36.881Z,20.10
2017-11-17T01:56:04.973Z,17.45
2017-11-17T01:58:33.132Z,17.93
2017-11-17T02:01:01.250Z,17.80
2017-11-17T02:03:29.385Z,17.77
2017-11-17T02:05:57.541Z,17.30
2017-11-17T02:08:25.656Z,17.15
2017-11-17T02:10:53.811Z,16.27
2017-11-17T02:13:21.927Z,18.73
2017-11-17T02:15:50.836Z,16.67
2017-11-17T02:18:18.953Z,15.80
2017-11-17T02:20:47.110Z,15.18
2017-11-17T02:23:15.229Z,16.73
2017-11-17T02:25:44.118Z,14.00
2017-11-17T02:28:13.011Z,16.40
2017-11-17T02:30:41.917Z,14.07
2017-11-17T02:33:10.070Z,14.57
2017-11-17T02:35:38.201Z,13.23
2017-11-17T02:38:06.449Z,12.77
2017-11-17T02:40:34.560Z,13.70
2017-11-17T02:43:04.207Z,13.65
2017-11-17T02:45:33.104Z,13.27
2017-11-17T02:48:01.227Z,13.62
2017-11-17T02:50:29.372Z,12.55
2017-11-17T02:52:57.512Z,15.48
2017-11-17T02:55:26.401Z,14.85
2017-11-17T02:57:55.305Z,13.48
2017-11-17T03:00:23.437Z,13.77
2017-11-17T03:02:51.557Z,14.63
2017-11-17T03:05:21.084Z,13.57
2017-11-17T03:07:49.219Z,16.55
2017-11-17T03:10:18.091Z,19.60
2017-11-17T03:12:46.981Z,18.93
2017-11-17T03:15:15.893Z,18.67
2017-11-17T03:17:44.020Z,19.67
2017-11-17T03:20:12.160Z,19.20
2017-11-17T03:22:40.286Z,18.75
2017-11-17T03:25:09.189Z,18.17
2017-11-17T03:27:38.083Z,20.70
2017-11-17T03:30:06.256Z,17.27
2017-11-17T03:32:35.155Z,17.95
2017-11-17T03:35:03.285Z,17.58
2017-11-17T03:37:31.419Z,19.00
2017-11-17T03:39:59.541Z,17.00
2017-11-17T03:42:28.434Z,19.37
2017-11-17T03:44:56.550Z,20.20
2017-11-17T03:47:24.670Z,19.20
2017-11-17T03:49:53.559Z,20.12
2017-11-17T03:52:21.696Z,19.50
2017-11-17T03:54:49.832Z,21.33
2017-11-17T03:57:18.734Z,18.70
2017-11-17T03:59:46.876Z,17.58
2017-11-17T04:02:15.762Z,19.63
2017-11-17T04:04:44.654Z,20.27
2017-11-17T04:07:13.551Z,19.40
2017-11-17T04:09:42.446Z,19.48
2017-11-17T04:12:11.357Z,17.87
2017-11-17T04:14:39.470Z,19.25
2017-11-17T04:17:07.620Z,19.70
2017-11-17T04:19:35.757Z,18.83
2017-11-17T04:22:04.637Z,21.40
2017-11-17T04:24:33.539Z,19.30
2017-11-17T04:27:02.430Z,21.73
2017-11-17T04:29:30.552Z,19.62
2017-11-17T04:31:58.671Z,20.00
2017-11-17T04:34:26.795Z,23.08
2017-11-17T04:36:54.939Z,20.63
2017-11-17T04:39:23.057Z,19.10
2017-11-17T04:41:51.179Z,21.67
2017-11-17T04:44:19.322Z,20.58
2017-11-17T04:46:48.227Z,20.42
2017-11-17T04:49:17.111Z,21.83
2017-11-17T04:51:45.995Z,20.30
2017-11-17T04:54:14.115Z,21.33
2017-11-17T04:56:42.261Z,21.00
2017-11-17T04:59:10.388Z,19.37
2017-11-17T05:01:38.542Z,20.20
2017-11-17T05:04:08.584Z,19.83
2017-11-17T05:06:36.714Z,18.50
2017-11-17T05:09:04.845Z,18.35
2017-11-17T05:11:33.761Z,20.48
2017-11-17T05:14:01.872Z,19.90
2017-11-17T05:16:30.009Z,19.02
2017-11-17T05:18:58.122Z,20.35
2017-11-17T05:21:26.266Z,20.40
2017-11-17T05:23:54.399Z,20.85
2017-11-17T05:26:23.288Z,21.37
2017-11-17T05:28:51.411Z,23.07
2017-11-17T05:31:19.547Z,23.20
2017-11-17T05:33:47.683Z,20.58
2017-11-17T05:36:15.791Z,21.37
2017-11-17T05:38:43.934Z,21.05
2017-11-17T05:41:12.054Z,20.92
2017-11-17T05:43:40.216Z,20.10
2017-11-17T05:46:08.325Z,21.73
2017-11-17T05:48:36.453Z,20.85
2017-11-17T05:51:04.577Z,23.53
2017-11-17T05:53:32.699Z,21.23
2017-11-17T05:56:00.848Z,22.67
2017-11-17T05:58:29.728Z,21.10
2017-11-17T06:00:58.678Z,23.47
2017-11-17T06:03:26.800Z,20.05
2017-11-17T06:05:55.704Z,19.90
2017-11-17T06:08:23.827Z,22.37
2017-11-17T06:10:51.971Z,23.62
2017-11-17T06:13:20.088Z,21.90
2017-11-17T06:15:48.216Z,21.83
2017-11-17T06:18:16.335Z,19.92
2017-11-17T06:20:44.477Z,20.30
2017-11-17T06:23:12.615Z,23.45
2017-11-17T06:25:40.769Z,19.52
2017-11-17T06:28:09.652Z,20.57
2017-11-17T06:30:38.533Z,22.42
2017-11-17T06:33:07.445Z,19.62
2017-11-17T06:35:36.341Z,21.62
2017-11-17T06:38:04.471Z,23.00
2017-11-17T06:40:32.598Z,20.75
2017-11-17T06:43:00.725Z,22.07
2017-11-17T06:45:28.849Z,24.35
2017-11-17T06:47:56.992Z,23.75
2017-11-17T06:50:25.889Z,20.08
2017-11-17T06:52:54.023Z,23.38
2017-11-17T06:55:22.153Z,22.58
2017-11-17T06:57:50.279Z,23.03
2017-11-17T07:00:19.166Z,25.48
2017-11-17T07:02:47.316Z,21.50
2017-11-17T07:05:15.438Z,22.02
2017-11-17T07:07:44.339Z,22.50
2017-11-17T07:10:12.475Z,24.17
2017-11-17T07:12:40.602Z,21.30
2017-11-17T07:15:08.764Z,21.83
2017-11-17T07:17:36.900Z,22.73
2017-11-17T07:20:05.786Z,24.55
2017-11-17T07:22:34.728Z,23.37
2017-11-17T07:25:02.847Z,24.75
2017-11-17T07:27:30.970Z,23.70
2017-11-17T07:29:59.091Z,23.08
2017-11-17T07:32:27.991Z,23.08
2017-11-17T07:34:56.882Z,24.45
2017-11-17T07:37:25.788Z,22.90
2017-11-17T07:39:53.920Z,24.37
2017-11-17T07:42:22.057Z,23.07
2017-11-17T07:44:50.171Z,23.12
2017-11-17T07:47:18.323Z,20.70
2017-11-17T07:49:46.440Z,23.45
2017-11-17T07:52:15.343Z,23.50
2017-11-17T07:54:43.461Z,22.85
2017-11-17T07:57:11.600Z,23.20
2017-11-17T07:59:39.718Z,25.02
2017-11-17T08:02:07.881Z,23.77
2017-11-17T08:04:36.017Z,23.48
2017-11-17T08:07:04.142Z,22.55
2017-11-17T08:09:32.263Z,22.90
2017-11-17T08:12:00.393Z,26.17
2017-11-17T08:14:29.284Z,24.55
2017-11-17T08:20:14.066Z,21.40
2017-11-17T08:22:42.971Z,24.10
2017-11-17T08:25:11.857Z,22.60
2017-11-17T08:27:39.999Z,25.60
2017-11-17T08:30:08.142Z,25.30
2017-11-17T08:32:36.275Z,24.83
2017-11-17T08:35:05.174Z,24.05
2017-11-17T08:37:33.320Z,22.02
2017-11-17T08:40:02.216Z,25.52
2017-11-17T08:42:31.143Z,25.00
2017-11-17T08:44:59.266Z,24.95
2017-11-17T08:47:27.422Z,23.83
2017-11-17T08:49:55.558Z,24.25
2017-11-17T08:52:23.709Z,24.43
2017-11-17T08:54:52.604Z,23.62
2017-11-17T08:57:20.736Z,27.27
2017-11-17T08:59:48.872Z,25.60
2017-11-17T09:02:17.011Z,25.47
2017-11-17T09:04:45.910Z,25.10
2017-11-17T09:07:14.042Z,25.60
2017-11-17T09:09:42.172Z,26.70
2017-11-17T09:12:10.349Z,27.17
2017-11-17T09:14:38.463Z,26.73
2017-11-17T09:17:06.601Z,25.33
2017-11-17T09:19:34.734Z,26.42
2017-11-17T09:22:03.638Z,26.37
2017-11-17T09:24:31.779Z,24.73
2017-11-17T09:27:00.730Z,25.90
2017-11-17T09:29:28.859Z,31.65
2017-11-17T09:31:57.954Z,29.67
2017-11-17T09:34:26.120Z,27.85
2017-11-17T09:36:55.035Z,27.00
2017-11-17T09:39:23.169Z,27.25
2017-11-17T09:41:51.295Z,25.40
2017-11-17T09:44:19.449Z,28.40
2017-11-17T09:46:47.621Z,26.20
2017-11-17T09:49:15.761Z,24.05
2017-11-17T09:51:43.933Z,29.00
2017-11-17T09:54:12.065Z,22.77
2017-11-17T09:56:40.235Z,25.35
2017-11-17T09:59:08.486Z,25.37
2017-11-17T10:01:36.618Z,25.87
2017-11-17T10:04:04.758Z,27.52
2017-11-17T10:06:32.900Z,25.00
2017-11-17T10:09:01.034Z,24.60
2017-11-17T10:11:29.224Z,26.05
2017-11-17T10:13:58.108Z,23.42
2017-11-17T10:16:27.040Z,25.35
2017-11-17T10:18:55.177Z,25.25
2017-11-17T10:21:23.306Z,25.13
2017-11-17T10:23:51.467Z,25.55
2017-11-17T10:26:19.617Z,23.87
2017-11-17T10:28:47.756Z,24.77
2017-11-17T10:31:15.922Z,25.23
2017-11-17T10:33:44.061Z,24.70
2017-11-17T10:36:12.195Z,23.77
2017-11-17T10:38:41.795Z,25.60
2017-11-17T10:41:10.734Z,24.55
2017-11-17T10:43:38.867Z,26.27
2017-11-17T10:46:07.795Z,24.12
2017-11-17T10:48:35.923Z,24.77
2017-11-17T10:51:04.060Z,21.80
2017-11-17T10:53:32.202Z,26.05
2017-11-17T10:56:00.382Z,24.98
2017-11-17T10:58:28.482Z,23.50
2017-11-17T11:00:56.625Z,26.50
2017-11-17T11:03:24.743Z,25.77
2017-11-17T11:05:52.899Z,24.60
2017-11-17T11:08:21.040Z,22.62
2017-11-17T11:10:54.789Z,24.90
2017-11-17T11:13:22.949Z,23.93
2017-11-17T11:15:51.105Z,23.33
2017-11-17T11:18:19.241Z,24.80
2017-11-17T11:20:47.480Z,23.17
2017-11-17T11:23:15.616Z,24.10
2017-11-17T11:25:43.982Z,24.42
2017-11-17T11:28:12.097Z,25.37
2017-11-17T11:30:40.306Z,21.95
2017-11-17T11:33:09.192Z,25.42
2017-11-17T11:35:38.121Z,25.33
2017-11-17T11:38:06.236Z,25.77
2017-11-17T11:40:35.128Z,23.58
2017-11-17T11:43:03.253Z,26.37
2017-11-17T11:45:31.393Z,24.80
2017-11-17T11:48:00.296Z,25.40
2017-11-17T11:50:28.408Z,25.40
2017-11-17T11:52:56.545Z,25.55
2017-11-17T11:55:24.679Z,24.40
2017-11-17T11:57:52.853Z,23.40
2017-11-17T12:00:20.969Z,22.23
2017-11-17T12:02:49.130Z,25.35
2017-11-17T12:05:17.270Z,23.98
2017-11-17T12:07:45.400Z,28.00
2017-11-17T12:10:13.515Z,23.12
2017-11-17T12:12:42.424Z,25.00
2017-11-17T12:15:11.299Z,26.55
2017-11-17T12:17:40.228Z,24.70
2017-11-17T12:20:08.357Z,24.27
2017-11-17T12:22:36.554Z,24.10
2017-11-17T12:25:04.678Z,24.30
2017-11-17T12:27:32.820Z,22.73
2017-11-17T12:30:01.295Z,23.65
2017-11-17T12:32:29.438Z,22.25
2017-11-17T12:34:57.565Z,22.83
2017-11-17T12:37:25.742Z,24.50
2017-11-17T12:39:53.850Z,22.30
2017-11-17T12:42:22.760Z,22.70
2017-11-17T12:44:50.902Z,22.62
2017-11-17T12:47:19.020Z,22.73
2017-11-17T12:49:47.163Z,23.27
2017-11-17T12:52:16.172Z,23.77
2017-11-17T12:54:45.152Z,24.55
2017-11-17T12:57:13.317Z,23.13
2017-11-17T12:59:42.241Z,23.50
2017-11-17T13:02:12.204Z,21.95
2017-11-17T13:04:38.562Z,25.20
2017-11-17T13:07:06.706Z,24.17
2017-11-17T13:09:34.856Z,26.17
2017-11-17T13:12:03.008Z,25.30
2017-11-17T13:14:31.151Z,23.75
2017-11-17T13:17:00.064Z,23.48
2017-11-17T13:19:28.199Z,23.70
2017-11-17T13:21:56.322Z,24.97
2017-11-17T13:24:24.473Z,25.25
2017-11-17T13:26:52.649Z,26.10
2017-11-17T13:29:20.840Z,23.83
2017-11-17T13:31:48.963Z,24.45
2017-11-17T13:34:17.099Z,25.45
2017-11-17T13:36:45.224Z,23.10
2017-11-17T13:39:14.176Z,23.80
2017-11-17T13:41:42.316Z,22.65
2017-11-17T13:44:10.481Z,23.67
2017-11-17T13:46:38.650Z,24.95
2017-11-17T13:49:06.783Z,24.35
2017-11-17T13:51:34.943Z,23.42
2017-11-17T13:54:03.067Z,22.95
2017-11-17T13:56:31.963Z,24.60
2017-11-17T13:59:00.112Z,23.35
2017-11-17T14:01:28.259Z,22.60
2017-11-17T14:03:56.387Z,25.35
2017-11-17T14:06:25.502Z,24.95
2017-11-17T14:08:53.620Z,24.05
2017-11-17T14:11:22.531Z,24.98
2017-11-17T14:13:51.424Z,22.35
2017-11-17T14:16:20.406Z,23.83
2017-11-17T14:18:49.308Z,23.58
2017-11-17T14:21:17.461Z,23.30
2017-11-17T14:23:46.406Z,23.12
2017-11-17T14:26:14.532Z,24.00
2017-11-17T14:28:43.442Z,23.97
2017-11-17T14:31:12.319Z,23.25
2017-11-17T14:33:40.502Z,23.42
2017-11-17T14:36:08.647Z,23.05
2017-11-17T14:38:36.777Z,23.40
2017-11-17T14:41:04.954Z,21.77
2017-11-17T14:43:33.061Z,23.07
2017-11-17T14:46:01.961Z,24.10
2017-11-17T14:48:30.102Z,22.17
2017-11-17T14:50:58.254Z,23.50
2017-11-17T14:53:26.491Z,23.27
2017-11-17T14:55:55.403Z,25.50
2017-11-17T14:58:24.293Z,23.80
2017-11-17T15:00:52.426Z,21.83
2017-11-17T15:03:20.662Z,24.00
2017-11-17T15:05:48.794Z,24.48
2017-11-17T15:08:17.724Z,24.48
2017-11-17T15:10:45.861Z,23.27
2017-11-17T15:13:14.777Z,25.20
2017-11-17T15:15:43.221Z,23.45
2017-11-17T15:18:12.161Z,25.23
2017-11-17T15:20:40.276Z,26.05
2017-11-17T15:23:08.425Z,30.80
2017-11-17T15:25:36.549Z,24.98
2017-11-17T15:28:05.465Z,25.88
2017-11-17T15:30:33.588Z,27.65
2017-11-17T15:33:01.807Z,30.30
2017-11-17T15:35:29.924Z,24.77
2017-11-17T15:37:58.043Z,25.27
2017-11-17T15:40:26.168Z,25.83
2017-11-17T15:42:54.333Z,25.27
2017-11-17T15:45:22.447Z,25.52
2017-11-17T15:47:51.658Z,26.33
2017-11-17T15:50:19.906Z,26.73
2017-11-17T15:52:48.796Z,26.62
2017-11-17T15:55:17.704Z,27.62
2017-11-17T15:57:45.849Z,26.83
2017-11-17T16:00:13.988Z,26.45
2017-11-17T16:02:42.109Z,26.48
2017-11-17T16:05:11.203Z,26.85
2017-11-17T16:07:39.370Z,26.08
2017-11-17T16:10:08.274Z,26.70
2017-11-17T16:12:37.175Z,25.97
2017-11-17T16:15:05.315Z,25.02
2017-11-17T16:17:33.438Z,27.62
2017-11-17T16:20:01.565Z,28.60
2017-11-17T16:22:30.734Z,26.90
2017-11-17T16:24:58.878Z,26.40
2017-11-17T16:27:27.004Z,25.77
2017-11-17T16:29:55.897Z,26.40
2017-11-17T16:32:25.376Z,26.35
2017-11-17T16:34:54.296Z,26.77
2017-11-17T16:37:23.397Z,28.17
2017-11-17T16:39:52.307Z,28.52
2017-11-17T16:42:20.449Z,26.13
2017-11-17T16:44:48.572Z,26.25
2017-11-17T16:47:16.739Z,24.75
2017-11-17T16:49:45.695Z,26.05
2017-11-17T16:52:14.594Z,27.98
2017-11-17T16:54:42.949Z,27.95
2017-11-17T16:57:11.063Z,28.13
2017-11-17T16:59:40.738Z,24.65
2017-11-17T17:02:09.627Z,27.80
2017-11-17T17:04:38.564Z,26.30
2017-11-17T17:07:06.724Z,26.17
2017-11-17T17:09:35.618Z,25.80
2017-11-17T17:12:03.809Z,28.15
2017-11-17T17:14:32.000Z,28.38
2017-11-17T17:17:00.248Z,29.58
2017-11-17T17:19:28.401Z,26.10
2017-11-17T17:21:56.553Z,27.98
2017-11-17T17:24:24.876Z,30.65
2017-11-17T17:26:53.017Z,28.33
2017-11-17T17:29:21.169Z,26.50
2017-11-17T17:31:50.093Z,27.05
2017-11-17T17:34:18.483Z,24.25
2017-11-17T17:36:46.666Z,27.25
2017-11-17T17:39:14.840Z,26.83
2017-11-17T17:41:42.961Z,25.77
2017-11-17T17:44:11.127Z,27.67
2017-11-17T17:46:40.062Z,26.87
2017-11-17T17:49:08.281Z,27.15
2017-11-17T17:51:36.453Z,28.33
2017-11-17T17:54:04.639Z,27.55
2017-11-17T17:56:33.549Z,24.40
2017-11-17T17:59:01.733Z,25.10
2017-11-17T18:01:29.995Z,25.67
2017-11-17T18:03:58.359Z,26.08
2017-11-17T18:06:27.261Z,25.92
2017-11-17T18:08:55.467Z,23.35
2017-11-17T18:11:23.784Z,24.63
2017-11-17T18:13:51.914Z,23.90
2017-11-17T18:16:20.056Z,24.85
2017-11-17T18:18:48.195Z,24.70
2017-11-17T18:21:16.363Z,26.30
2017-11-17T18:23:44.610Z,24.20
2017-11-17T18:26:13.921Z,24.00
2017-11-17T18:28:42.066Z,25.80
2017-11-17T18:31:10.347Z,25.35
2017-11-17T18:33:38.492Z,23.90
2017-11-17T18:36:06.614Z,23.48
2017-11-17T18:38:34.936Z,22.87
2017-11-17T18:41:03.310Z,22.23
2017-11-17T18:43:31.537Z,22.87
2017-11-17T18:46:00.385Z,23.02
2017-11-17T18:48:29.314Z,23.98
2017-11-17T18:50:58.286Z,22.15
2017-11-17T18:53:26.527Z,23.52
2017-11-17T18:55:54.666Z,22.75
2017-11-17T18:58:22.824Z,24.58
2017-11-17T19:00:50.966Z,22.45
2017-11-17T19:03:19.246Z,22.80
2017-11-17T19:05:48.553Z,24.23
2017-11-17T19:08:16.866Z,23.58
2017-11-17T19:10:45.019Z,24.02
2017-11-17T19:13:13.200Z,23.67
2017-11-17T19:15:41.351Z,23.20
2017-11-17T19:18:09.434Z,24.60
2017-11-17T19:20:37.920Z,24.50
2017-11-17T19:23:06.277Z,24.98
2017-11-17T19:25:34.736Z,23.33
2017-11-17T19:28:02.916Z,21.70
2017-11-17T19:30:31.066Z,26.35
2017-11-17T19:33:00.025Z,22.73
2017-11-17T19:35:28.931Z,22.40
2017-11-17T19:37:57.931Z,22.45
2017-11-17T19:40:26.147Z,26.92
2017-11-17T19:42:54.937Z,22.70
2017-11-17T19:45:23.068Z,22.65
2017-11-17T19:47:51.997Z,22.98
2017-11-17T19:50:21.292Z,22.33
2017-11-17T19:52:50.670Z,22.08
2017-11-17T19:55:19.610Z,20.90
2017-11-17T19:57:47.963Z,21.37
2017-11-17T20:00:16.527Z,22.90
2017-11-17T20:02:44.696Z,23.20
2017-11-17T20:05:13.644Z,21.40
2017-11-17T20:07:41.758Z,22.15
2017-11-17T20:10:10.705Z,22.48
2017-11-17T20:12:38.884Z,22.30
2017-11-17T20:15:07.021Z,21.95
2017-11-17T20:17:35.177Z,20.80
2017-11-17T20:20:04.164Z,23.15
2017-11-17T20:22:33.084Z,23.00
2017-11-17T20:25:01.226Z,23.60
2017-11-17T20:27:30.227Z,22.10
2017-11-17T20:29:58.418Z,23.27
2017-11-17T20:32:26.570Z,22.02
2017-11-17T20:34:55.584Z,22.20
2017-11-17T20:37:24.615Z,22.87
2017-11-17T20:39:52.773Z,24.80
2017-11-17T20:42:20.995Z,24.30
2017-11-17T20:44:49.120Z,24.08
2017-11-17T20:47:17.274Z,22.08
2017-11-17T20:49:45.424Z,21.37
2017-11-17T20:52:14.337Z,21.48
2017-11-17T20:54:42.490Z,22.00
2017-11-17T20:57:10.666Z,21.10
2017-11-17T20:59:38.802Z,21.55
2017-11-17T21:02:06.945Z,22.15
2017-11-17T21:04:37.838Z,20.90
2017-11-17T21:07:06.802Z,21.37
2017-11-17T21:09:34.921Z,21.55
2017-11-17T21:12:03.094Z,21.37
2017-11-17T21:14:31.252Z,22.65
2017-11-17T21:16:59.387Z,21.25
2017-11-17T21:19:27.539Z,23.05
2017-11-17T21:21:55.675Z,21.33
2017-11-17T21:24:23.833Z,23.35
2017-11-17T21:26:52.101Z,23.73
2017-11-17T21:29:21.200Z,22.48
2017-11-17T21:31:50.109Z,21.73
2017-11-17T21:34:18.264Z,22.67
2017-11-17T21:36:47.183Z,22.60
2017-11-17T21:39:15.348Z,23.40
2017-11-17T21:41:43.512Z,23.00
2017-11-17T21:44:12.410Z,21.50
2017-11-17T21:46:40.545Z,22.20
2017-11-17T21:49:08.723Z,23.40
2017-11-17T21:51:36.991Z,22.92
2017-11-17T21:54:06.079Z,21.05
2017-11-17T21:56:34.975Z,24.02
2017-11-17T21:59:03.107Z,21.95
2017-11-17T22:01:31.454Z,21.95
2017-11-17T22:03:59.590Z,21.15
2017-11-17T22:06:27.994Z,23.10
2017-11-17T22:08:56.151Z,20.92
2017-11-17T22:11:24.329Z,22.25
2017-11-17T22:13:52.458Z,23.00
2017-11-17T22:16:20.602Z,21.00
2017-11-17T22:18:48.862Z,22.25
2017-11-17T22:21:17.783Z,21.45
2017-11-17T22:23:45.910Z,21.05
2017-11-17T22:26:14.036Z,21.27
2017-11-17T22:28:42.154Z,19.60
2017-11-17T22:31:10.384Z,22.52
2017-11-17T22:33:38.497Z,22.70
2017-11-17T22:36:06.651Z,23.62
2017-11-17T22:38:34.804Z,22.10
2017-11-17T22:41:02.968Z,21.65
2017-11-17T22:43:31.092Z,22.70
2017-11-17T22:45:59.219Z,22.35
2017-11-17T22:48:27.396Z,21.48
2017-11-17T22:50:55.548Z,24.50
2017-11-17T22:53:23.668Z,21.87
2017-11-17T22:55:51.799Z,22.10
2017-11-17T22:58:19.942Z,22.60
2017-11-17T23:00:49.059Z,22.27
2017-11-17T23:03:17.205Z,23.12
2017-11-17T23:05:45.336Z,19.23
2017-11-17T23:08:13.465Z,19.92
2017-11-17T23:10:41.605Z,21.65
2017-11-17T23:13:09.749Z,21.62
2017-11-17T23:15:37.858Z,21.77
2017-11-17T23:18:06.755Z,19.85
2017-11-17T23:20:35.678Z,21.55
2017-11-17T23:23:03.790Z,19.95
2017-11-17T23:25:32.675Z,19.25
2017-11-17T23:28:00.815Z,19.30
2017-11-17T23:30:28.953Z,19.92
2017-11-17T23:32:57.864Z,21.20
2017-11-17T23:35:25.985Z,21.98
2017-11-17T23:37:54.132Z,21.80
2017-11-17T23:40:22.270Z,19.52
2017-11-17T23:42:51.161Z,20.10
2017-11-17T23:45:19.311Z,22.92
2017-11-17T23:47:47.455Z,22.62
2017-11-17T23:50:15.584Z,23.92
2017-11-17T23:52:43.740Z,22.10
2017-11-17T23:55:12.636Z,22.77
2017-11-17T23:57:41.542Z,22.87
